sensor_id;sensor_type;location;lat;lon;timestamp;P1;durP1;ratioP1;P2;durP2;ratioP2
6306;SDS011;3186;54.062;9.962;2023-03-01T00:01:08;19.17;;;10.40;;
6306;SDS011;3186;54.062;9.962;2023-03-01T00:03:35;18.30;;;10.00;;
6306;SDS011;3186;54.062;9.962;2023-03-01T00:06:02;16.67;;;9.80;;
6306;SDS011;3186;54.062;9.962;2023-03-01T00:08:29;18.23;;;10.53;;
6306;SDS011;3186;54.062;9.962;2023-03-01T00:11:02;17.83;;;10.27;;
6306;SDS011;3186;54.062;9.962;2023-03-01T00:13:34;19.93;;;11.03;;
6306;SDS011;3186;54.062;9.962;2023-03-01T00:16:04;18.23;;;10.30;;
6306;SDS011;3186;54.062;9.962;2023-03-01T00:18:32;19.63;;;11.33;;
6306;SDS011;3186;54.062;9.962;2023-03-01T00:20:58;21.50;;;10.47;;
6306;SDS011;3186;54.062;9.962;2023-03-01T00:23:24;23.40;;;11.20;;
6306;SDS011;3186;54.062;9.962;2023-03-01T00:25:50;22.87;;;11.50;;
6306;SDS011;3186;54.062;9.962;2023-03-01T00:28:17;31.03;;;12.93;;
6306;SDS011;3186;54.062;9.962;2023-03-01T00:30:43;28.70;;;12.13;;
6306;SDS011;3186;54.062;9.962;2023-03-01T00:33:09;32.70;;;12.83;;
6306;SDS011;3186;54.062;9.962;2023-03-01T00:35:35;33.43;;;14.17;;
6306;SDS011;3186;54.062;9.962;2023-03-01T00:38:01;36.47;;;14.07;;
6306;SDS011;3186;54.062;9.962;2023-03-01T00:40:27;33.60;;;14.60;;
6306;SDS011;3186;54.062;9.962;2023-03-01T00:42:54;32.40;;;14.97;;
6306;SDS011;3186;54.062;9.962;2023-03-01T00:45:20;32.87;;;14.70;;
6306;SDS011;3186;54.062;9.962;2023-03-01T00:47:47;35.83;;;14.53;;
6306;SDS011;3186;54.062;9.962;2023-03-01T00:50:14;34.93;;;15.90;;
6306;SDS011;3186;54.062;9.962;2023-03-01T00:52:40;35.47;;;15.60;;
6306;SDS011;3186;54.062;9.962;2023-03-01T00:55:06;37.50;;;16.10;;
6306;SDS011;3186;54.062;9.962;2023-03-01T00:57:33;33.80;;;15.13;;
6306;SDS011;3186;54.062;9.962;2023-03-01T00:59:58;31.57;;;15.20;;
6306;SDS011;3186;54.062;9.962;2023-03-01T01:02:25;31.53;;;15.20;;
6306;SDS011;3186;54.062;9.962;2023-03-01T01:04:51;38.17;;;16.03;;
6306;SDS011;3186;54.062;9.962;2023-03-01T01:07:17;33.37;;;15.10;;
6306;SDS011;3186;54.062;9.962;2023-03-01T01:09:45;35.33;;;15.97;;
6306;SDS011;3186;54.062;9.962;2023-03-01T01:12:11;31.43;;;15.00;;
6306;SDS011;3186;54.062;9.962;2023-03-01T01:14:37;31.73;;;16.70;;
6306;SDS011;3186;54.062;9.962;2023-03-01T01:17:03;29.30;;;14.40;;
6306;SDS011;3186;54.062;9.962;2023-03-01T01:19:30;30.37;;;14.77;;
6306;SDS011;3186;54.062;9.962;2023-03-01T01:21:56;26.50;;;14.13;;
6306;SDS011;3186;54.062;9.962;2023-03-01T01:24:22;29.43;;;14.80;;
6306;SDS011;3186;54.062;9.962;2023-03-01T01:26:48;25.90;;;13.17;;
6306;SDS011;3186;54.062;9.962;2023-03-01T01:29:14;23.63;;;13.33;;
6306;SDS011;3186;54.062;9.962;2023-03-01T01:31:40;19.87;;;12.17;;
6306;SDS011;3186;54.062;9.962;2023-03-01T01:34:11;21.80;;;12.67;;
6306;SDS011;3186;54.062;9.962;2023-03-01T01:36:39;21.50;;;13.20;;
6306;SDS011;3186;54.062;9.962;2023-03-01T01:39:05;22.00;;;12.73;;
6306;SDS011;3186;54.062;9.962;2023-03-01T01:41:32;18.83;;;11.67;;
6306;SDS011;3186;54.062;9.962;2023-03-01T01:46:51;16.93;;;10.83;;
6306;SDS011;3186;54.062;9.962;2023-03-01T01:50:00;18.27;;;11.10;;
6306;SDS011;3186;54.062;9.962;2023-03-01T01:52:11;15.20;;;10.20;;
6306;SDS011;3186;54.062;9.962;2023-03-01T01:57:22;15.77;;;9.57;;
6306;SDS011;3186;54.062;9.962;2023-03-01T01:59:52;15.83;;;9.97;;
6306;SDS011;3186;54.062;9.962;2023-03-01T02:02:21;13.90;;;8.83;;
6306;SDS011;3186;54.062;9.962;2023-03-01T02:04:48;14.10;;;9.57;;
6306;SDS011;3186;54.062;9.962;2023-03-01T02:07:22;13.13;;;9.10;;
6306;SDS011;3186;54.062;9.962;2023-03-01T02:09:50;13.07;;;9.63;;
6306;SDS011;3186;54.062;9.962;2023-03-01T02:12:23;14.07;;;9.50;;
6306;SDS011;3186;54.062;9.962;2023-03-01T02:14:49;12.63;;;9.07;;
6306;SDS011;3186;54.062;9.962;2023-03-01T02:17:16;11.43;;;8.20;;
6306;SDS011;3186;54.062;9.962;2023-03-01T02:27:22;10.80;;;8.60;;
6306;SDS011;3186;54.062;9.962;2023-03-01T02:29:51;12.63;;;8.57;;
6306;SDS011;3186;54.062;9.962;2023-03-01T02:32:17;13.13;;;9.00;;
6306;SDS011;3186;54.062;9.962;2023-03-01T02:34:53;11.30;;;8.43;;
6306;SDS011;3186;54.062;9.962;2023-03-01T02:37:20;11.97;;;9.13;;
6306;SDS011;3186;54.062;9.962;2023-03-01T02:39:59;12.37;;;8.23;;
6306;SDS011;3186;54.062;9.962;2023-03-01T02:42:31;10.63;;;8.30;;
6306;SDS011;3186;54.062;9.962;2023-03-01T02:45:02;12.83;;;8.67;;
6306;SDS011;3186;54.062;9.962;2023-03-01T02:47:28;11.03;;;8.37;;
6306;SDS011;3186;54.062;9.962;2023-03-01T02:49:54;12.60;;;9.03;;
6306;SDS011;3186;54.062;9.962;2023-03-01T02:55:06;16.50;;;9.27;;
6306;SDS011;3186;54.062;9.962;2023-03-01T02:57:37;10.00;;;7.70;;
6306;SDS011;3186;54.062;9.962;2023-03-01T03:00:07;11.73;;;7.90;;
6306;SDS011;3186;54.062;9.962;2023-03-01T03:02:44;12.77;;;8.47;;
6306;SDS011;3186;54.062;9.962;2023-03-01T03:05:23;11.90;;;9.20;;
6306;SDS011;3186;54.062;9.962;2023-03-01T03:07:55;11.30;;;7.93;;
6306;SDS011;3186;54.062;9.962;2023-03-01T03:10:22;10.93;;;7.87;;
6306;SDS011;3186;54.062;9.962;2023-03-01T03:12:52;11.80;;;8.37;;
6306;SDS011;3186;54.062;9.962;2023-03-01T03:15:21;11.73;;;7.80;;
6306;SDS011;3186;54.062;9.962;2023-03-01T03:17:47;11.00;;;8.20;;
6306;SDS011;3186;54.062;9.962;2023-03-01T03:20:16;11.63;;;7.73;;
6306;SDS011;3186;54.062;9.962;2023-03-01T03:22:47;11.67;;;8.27;;
6306;SDS011;3186;54.062;9.962;2023-03-01T03:25:16;11.80;;;8.33;;
6306;SDS011;3186;54.062;9.962;2023-03-01T03:27:43;10.93;;;8.13;;
6306;SDS011;3186;54.062;9.962;2023-03-01T03:30:11;10.47;;;7.70;;
6306;SDS011;3186;54.062;9.962;2023-03-01T03:32:40;11.33;;;8.53;;
6306;SDS011;3186;54.062;9.962;2023-03-01T03:35:08;10.40;;;8.10;;
6306;SDS011;3186;54.062;9.962;2023-03-01T03:37:38;12.77;;;8.80;;
6306;SDS011;3186;54.062;9.962;2023-03-01T03:40:23;10.60;;;8.00;;
6306;SDS011;3186;54.062;9.962;2023-03-01T03:42:50;13.03;;;9.13;;
6306;SDS011;3186;54.062;9.962;2023-03-01T03:45:16;11.80;;;8.47;;
6306;SDS011;3186;54.062;9.962;2023-03-01T03:47:43;11.20;;;7.93;;
6306;SDS011;3186;54.062;9.962;2023-03-01T03:50:12;13.73;;;9.23;;
6306;SDS011;3186;54.062;9.962;2023-03-01T03:52:40;11.90;;;8.43;;
6306;SDS011;3186;54.062;9.962;2023-03-01T03:55:06;11.53;;;8.23;;
6306;SDS011;3186;54.062;9.962;2023-03-01T03:57:34;10.37;;;7.93;;
6306;SDS011;3186;54.062;9.962;2023-03-01T04:00:00;10.50;;;7.73;;
6306;SDS011;3186;54.062;9.962;2023-03-01T04:02:37;12.13;;;8.63;;
6306;SDS011;3186;54.062;9.962;2023-03-01T04:05:06;10.53;;;8.20;;
6306;SDS011;3186;54.062;9.962;2023-03-01T04:07:33;11.53;;;8.67;;
6306;SDS011;3186;54.062;9.962;2023-03-01T04:10:00;10.73;;;7.77;;
6306;SDS011;3186;54.062;9.962;2023-03-01T04:12:27;11.90;;;8.50;;
6306;SDS011;3186;54.062;9.962;2023-03-01T04:14:52;10.10;;;7.57;;
6306;SDS011;3186;54.062;9.962;2023-03-01T04:17:18;11.47;;;8.57;;
6306;SDS011;3186;54.062;9.962;2023-03-01T04:19:44;11.77;;;8.40;;
6306;SDS011;3186;54.062;9.962;2023-03-01T04:22:14;11.57;;;8.90;;
6306;SDS011;3186;54.062;9.962;2023-03-01T04:24:42;11.77;;;8.40;;
6306;SDS011;3186;54.062;9.962;2023-03-01T04:27:08;13.23;;;9.50;;
6306;SDS011;3186;54.062;9.962;2023-03-01T04:29:34;13.27;;;8.77;;
6306;SDS011;3186;54.062;9.962;2023-03-01T04:32:00;13.87;;;9.10;;
6306;SDS011;3186;54.062;9.962;2023-03-01T04:34:26;12.07;;;8.23;;
6306;SDS011;3186;54.062;9.962;2023-03-01T04:36:52;12.47;;;9.40;;
6306;SDS011;3186;54.062;9.962;2023-03-01T04:39:18;13.33;;;9.90;;
6306;SDS011;3186;54.062;9.962;2023-03-01T04:41:44;11.87;;;8.70;;
6306;SDS011;3186;54.062;9.962;2023-03-01T04:44:10;14.37;;;9.83;;
6306;SDS011;3186;54.062;9.962;2023-03-01T04:46:36;13.17;;;9.23;;
6306;SDS011;3186;54.062;9.962;2023-03-01T04:49:02;14.33;;;9.63;;
6306;SDS011;3186;54.062;9.962;2023-03-01T04:51:28;15.27;;;10.07;;
6306;SDS011;3186;54.062;9.962;2023-03-01T04:53:54;13.53;;;9.17;;
6306;SDS011;3186;54.062;9.962;2023-03-01T04:56:20;11.53;;;8.97;;
6306;SDS011;3186;54.062;9.962;2023-03-01T04:58:48;14.57;;;9.67;;
6306;SDS011;3186;54.062;9.962;2023-03-01T05:01:15;14.13;;;10.10;;
6306;SDS011;3186;54.062;9.962;2023-03-01T05:03:48;14.20;;;8.87;;
6306;SDS011;3186;54.062;9.962;2023-03-01T05:06:17;14.63;;;10.03;;
6306;SDS011;3186;54.062;9.962;2023-03-01T05:08:44;14.27;;;10.00;;
6306;SDS011;3186;54.062;9.962;2023-03-01T05:11:11;14.13;;;9.57;;
6306;SDS011;3186;54.062;9.962;2023-03-01T05:13:37;13.00;;;9.57;;
6306;SDS011;3186;54.062;9.962;2023-03-01T05:16:04;13.77;;;9.80;;
6306;SDS011;3186;54.062;9.962;2023-03-01T05:18:32;12.67;;;9.30;;
6306;SDS011;3186;54.062;9.962;2023-03-01T05:21:02;13.00;;;9.13;;
6306;SDS011;3186;54.062;9.962;2023-03-01T05:23:31;12.53;;;8.80;;
6306;SDS011;3186;54.062;9.962;2023-03-01T05:25:58;14.10;;;8.97;;
6306;SDS011;3186;54.062;9.962;2023-03-01T05:28:26;11.53;;;7.80;;
6306;SDS011;3186;54.062;9.962;2023-03-01T05:30:53;11.97;;;8.47;;
6306;SDS011;3186;54.062;9.962;2023-03-01T05:33:20;12.30;;;8.60;;
6306;SDS011;3186;54.062;9.962;2023-03-01T05:35:47;9.80;;;7.23;;
6306;SDS011;3186;54.062;9.962;2023-03-01T05:38:14;11.20;;;7.93;;
6306;SDS011;3186;54.062;9.962;2023-03-01T05:40:42;13.60;;;8.67;;
6306;SDS011;3186;54.062;9.962;2023-03-01T05:43:09;12.60;;;8.13;;
6306;SDS011;3186;54.062;9.962;2023-03-01T05:45:36;11.33;;;7.83;;
6306;SDS011;3186;54.062;9.962;2023-03-01T05:48:03;11.47;;;8.47;;
6306;SDS011;3186;54.062;9.962;2023-03-01T05:50:32;10.83;;;7.53;;
6306;SDS011;3186;54.062;9.962;2023-03-01T05:53:07;11.43;;;8.30;;
6306;SDS011;3186;54.062;9.962;2023-03-01T05:55:36;11.60;;;7.67;;
6306;SDS011;3186;54.062;9.962;2023-03-01T05:58:04;10.43;;;7.20;;
6306;SDS011;3186;54.062;9.962;2023-03-01T06:00:31;10.83;;;7.33;;
6306;SDS011;3186;54.062;9.962;2023-03-01T06:02:58;10.07;;;6.83;;
6306;SDS011;3186;54.062;9.962;2023-03-01T06:05:25;10.37;;;6.90;;
6306;SDS011;3186;54.062;9.962;2023-03-01T06:07:52;10.10;;;6.93;;
6306;SDS011;3186;54.062;9.962;2023-03-01T06:10:18;9.10;;;6.60;;
6306;SDS011;3186;54.062;9.962;2023-03-01T06:12:45;10.40;;;6.80;;
6306;SDS011;3186;54.062;9.962;2023-03-01T06:15:13;10.73;;;7.00;;
6306;SDS011;3186;54.062;9.962;2023-03-01T06:17:40;9.07;;;6.73;;
6306;SDS011;3186;54.062;9.962;2023-03-01T06:20:11;10.37;;;6.67;;
6306;SDS011;3186;54.062;9.962;2023-03-01T06:22:38;12.23;;;6.90;;
6306;SDS011;3186;54.062;9.962;2023-03-01T06:25:05;9.63;;;6.33;;
6306;SDS011;3186;54.062;9.962;2023-03-01T06:27:31;9.60;;;6.90;;
6306;SDS011;3186;54.062;9.962;2023-03-01T06:29:57;9.90;;;7.03;;
6306;SDS011;3186;54.062;9.962;2023-03-01T06:32:23;9.33;;;6.47;;
6306;SDS011;3186;54.062;9.962;2023-03-01T06:34:49;9.97;;;6.83;;
6306;SDS011;3186;54.062;9.962;2023-03-01T06:37:15;9.43;;;6.80;;
6306;SDS011;3186;54.062;9.962;2023-03-01T06:39:41;10.20;;;7.23;;
6306;SDS011;3186;54.062;9.962;2023-03-01T06:42:10;10.33;;;7.30;;
6306;SDS011;3186;54.062;9.962;2023-03-01T06:44:36;11.30;;;7.37;;
6306;SDS011;3186;54.062;9.962;2023-03-01T06:47:02;10.73;;;7.20;;
6306;SDS011;3186;54.062;9.962;2023-03-01T06:49:29;9.43;;;7.00;;
6306;SDS011;3186;54.062;9.962;2023-03-01T06:51:55;9.60;;;7.00;;
6306;SDS011;3186;54.062;9.962;2023-03-01T06:54:22;10.70;;;7.30;;
6306;SDS011;3186;54.062;9.962;2023-03-01T06:56:48;10.03;;;7.07;;
6306;SDS011;3186;54.062;9.962;2023-03-01T06:59:15;9.33;;;6.97;;
6306;SDS011;3186;54.062;9.962;2023-03-01T07:01:42;12.00;;;7.70;;
6306;SDS011;3186;54.062;9.962;2023-03-01T07:04:08;11.23;;;7.27;;
6306;SDS011;3186;54.062;9.962;2023-03-01T07:06:34;10.20;;;7.33;;
6306;SDS011;3186;54.062;9.962;2023-03-01T07:09:00;9.73;;;7.43;;
6306;SDS011;3186;54.062;9.962;2023-03-01T07:11:26;10.83;;;7.07;;
6306;SDS011;3186;54.062;9.962;2023-03-01T07:13:52;10.33;;;7.70;;
6306;SDS011;3186;54.062;9.962;2023-03-01T07:16:18;11.80;;;7.97;;
6306;SDS011;3186;54.062;9.962;2023-03-01T07:18:45;12.83;;;7.97;;
6306;SDS011;3186;54.062;9.962;2023-03-01T07:21:12;12.07;;;8.23;;
6306;SDS011;3186;54.062;9.962;2023-03-01T07:23:39;13.33;;;8.27;;
6306;SDS011;3186;54.062;9.962;2023-03-01T07:26:05;10.87;;;7.47;;
6306;SDS011;3186;54.062;9.962;2023-03-01T07:28:30;11.47;;;7.30;;
6306;SDS011;3186;54.062;9.962;2023-03-01T07:31:04;9.97;;;6.70;;
6306;SDS011;3186;54.062;9.962;2023-03-01T07:33:31;12.17;;;7.60;;
6306;SDS011;3186;54.062;9.962;2023-03-01T07:35:57;11.67;;;7.23;;
6306;SDS011;3186;54.062;9.962;2023-03-01T07:38:25;11.73;;;7.53;;
6306;SDS011;3186;54.062;9.962;2023-03-01T07:40:51;11.07;;;7.63;;
6306;SDS011;3186;54.062;9.962;2023-03-01T07:43:17;10.43;;;7.53;;
6306;SDS011;3186;54.062;9.962;2023-03-01T07:45:43;10.00;;;7.13;;
6306;SDS011;3186;54.062;9.962;2023-03-01T07:48:09;11.20;;;7.43;;
6306;SDS011;3186;54.062;9.962;2023-03-01T07:50:35;9.20;;;7.07;;
6306;SDS011;3186;54.062;9.962;2023-03-01T07:53:01;13.70;;;8.03;;
6306;SDS011;3186;54.062;9.962;2023-03-01T07:55:27;10.93;;;7.40;;
6306;SDS011;3186;54.062;9.962;2023-03-01T07:57:53;9.50;;;6.67;;
6306;SDS011;3186;54.062;9.962;2023-03-01T08:00:19;10.23;;;7.07;;
6306;SDS011;3186;54.062;9.962;2023-03-01T08:02:45;10.13;;;6.57;;
6306;SDS011;3186;54.062;9.962;2023-03-01T08:05:11;12.63;;;8.17;;
6306;SDS011;3186;54.062;9.962;2023-03-01T08:07:37;10.37;;;7.30;;
6306;SDS011;3186;54.062;9.962;2023-03-01T08:10:03;11.83;;;7.60;;
6306;SDS011;3186;54.062;9.962;2023-03-01T08:12:29;8.93;;;5.90;;
6306;SDS011;3186;54.062;9.962;2023-03-01T08:14:55;8.63;;;6.20;;
6306;SDS011;3186;54.062;9.962;2023-03-01T08:17:22;10.07;;;6.70;;
6306;SDS011;3186;54.062;9.962;2023-03-01T08:19:48;9.37;;;6.63;;
6306;SDS011;3186;54.062;9.962;2023-03-01T08:22:14;15.70;;;7.60;;
6306;SDS011;3186;54.062;9.962;2023-03-01T08:24:39;9.87;;;6.80;;
6306;SDS011;3186;54.062;9.962;2023-03-01T08:27:05;10.20;;;7.00;;
6306;SDS011;3186;54.062;9.962;2023-03-01T08:29:31;8.80;;;6.47;;
6306;SDS011;3186;54.062;9.962;2023-03-01T08:31:57;10.80;;;7.33;;
6306;SDS011;3186;54.062;9.962;2023-03-01T08:34:26;10.53;;;7.43;;
6306;SDS011;3186;54.062;9.962;2023-03-01T08:36:52;9.73;;;7.07;;
6306;SDS011;3186;54.062;9.962;2023-03-01T08:39:19;9.73;;;7.03;;
6306;SDS011;3186;54.062;9.962;2023-03-01T08:41:45;12.23;;;7.40;;
6306;SDS011;3186;54.062;9.962;2023-03-01T08:44:12;10.40;;;6.80;;
6306;SDS011;3186;54.062;9.962;2023-03-01T08:46:41;8.63;;;6.17;;
6306;SDS011;3186;54.062;9.962;2023-03-01T08:49:09;10.93;;;7.30;;
6306;SDS011;3186;54.062;9.962;2023-03-01T08:51:37;9.80;;;6.53;;
6306;SDS011;3186;54.062;9.962;2023-03-01T08:54:04;9.00;;;5.97;;
6306;SDS011;3186;54.062;9.962;2023-03-01T08:56:30;8.50;;;6.27;;
6306;SDS011;3186;54.062;9.962;2023-03-01T08:58:56;24.73;;;7.70;;
6306;SDS011;3186;54.062;9.962;2023-03-01T09:01:22;9.33;;;6.80;;
6306;SDS011;3186;54.062;9.962;2023-03-01T09:03:48;10.67;;;6.90;;
6306;SDS011;3186;54.062;9.962;2023-03-01T09:06:14;9.07;;;6.27;;
6306;SDS011;3186;54.062;9.962;2023-03-01T09:08:44;9.60;;;6.43;;
6306;SDS011;3186;54.062;9.962;2023-03-01T09:11:13;9.60;;;5.80;;
6306;SDS011;3186;54.062;9.962;2023-03-01T09:13:42;16.87;;;7.13;;
6306;SDS011;3186;54.062;9.962;2023-03-01T09:16:12;9.73;;;6.17;;
6306;SDS011;3186;54.062;9.962;2023-03-01T09:18:39;8.97;;;5.97;;
6306;SDS011;3186;54.062;9.962;2023-03-01T09:21:15;14.70;;;7.30;;
6306;SDS011;3186;54.062;9.962;2023-03-01T09:23:43;15.57;;;6.10;;
6306;SDS011;3186;54.062;9.962;2023-03-01T09:26:20;9.73;;;6.57;;
6306;SDS011;3186;54.062;9.962;2023-03-01T09:28:48;9.30;;;6.10;;
6306;SDS011;3186;54.062;9.962;2023-03-01T09:31:15;8.27;;;5.80;;
6306;SDS011;3186;54.062;9.962;2023-03-01T09:33:42;8.40;;;5.60;;
6306;SDS011;3186;54.062;9.962;2023-03-01T09:36:11;7.70;;;5.63;;
6306;SDS011;3186;54.062;9.962;2023-03-01T09:38:39;8.43;;;6.37;;
6306;SDS011;3186;54.062;9.962;2023-03-01T09:46:19;7.43;;;5.13;;
6306;SDS011;3186;54.062;9.962;2023-03-01T09:48:57;7.40;;;5.20;;
6306;SDS011;3186;54.062;9.962;2023-03-01T09:51:33;8.70;;;5.70;;
6306;SDS011;3186;54.062;9.962;2023-03-01T09:54:01;6.63;;;4.80;;
6306;SDS011;3186;54.062;9.962;2023-03-01T10:01:38;7.80;;;5.60;;
6306;SDS011;3186;54.062;9.962;2023-03-01T10:04:28;8.07;;;5.37;;
6306;SDS011;3186;54.062;9.962;2023-03-01T10:07:12;7.60;;;5.10;;
6306;SDS011;3186;54.062;9.962;2023-03-01T10:10:00;9.00;;;5.43;;
6306;SDS011;3186;54.062;9.962;2023-03-01T10:12:34;9.13;;;5.53;;
6306;SDS011;3186;54.062;9.962;2023-03-01T10:15:39;7.33;;;5.33;;
6306;SDS011;3186;54.062;9.962;2023-03-01T10:18:09;7.10;;;5.50;;
6306;SDS011;3186;54.062;9.962;2023-03-01T10:20:46;6.57;;;4.67;;
6306;SDS011;3186;54.062;9.962;2023-03-01T10:23:16;7.83;;;5.37;;
6306;SDS011;3186;54.062;9.962;2023-03-01T10:25:55;6.87;;;5.27;;
6306;SDS011;3186;54.062;9.962;2023-03-01T10:28:43;9.63;;;5.57;;
6306;SDS011;3186;54.062;9.962;2023-03-01T10:31:25;7.87;;;5.33;;
6306;SDS011;3186;54.062;9.962;2023-03-01T10:34:02;9.77;;;6.20;;
6306;SDS011;3186;54.062;9.962;2023-03-01T10:36:43;8.33;;;5.40;;
6306;SDS011;3186;54.062;9.962;2023-03-01T10:39:28;10.30;;;5.93;;
6306;SDS011;3186;54.062;9.962;2023-03-01T10:47:13;6.97;;;5.00;;
6306;SDS011;3186;54.062;9.962;2023-03-01T10:52:29;12.30;;;5.60;;
6306;SDS011;3186;54.062;9.962;2023-03-01T10:54:59;7.57;;;5.20;;
6306;SDS011;3186;54.062;9.962;2023-03-01T10:57:32;8.23;;;5.10;;
6306;SDS011;3186;54.062;9.962;2023-03-01T11:00:24;9.20;;;5.13;;
6306;SDS011;3186;54.062;9.962;2023-03-01T11:03:11;6.57;;;4.63;;
6306;SDS011;3186;54.062;9.962;2023-03-01T11:05:49;8.03;;;4.87;;
6306;SDS011;3186;54.062;9.962;2023-03-01T11:08:25;8.40;;;4.43;;
6306;SDS011;3186;54.062;9.962;2023-03-01T11:13:49;7.30;;;5.57;;
6306;SDS011;3186;54.062;9.962;2023-03-01T11:16:22;8.63;;;5.63;;
6306;SDS011;3186;54.062;9.962;2023-03-01T11:18:57;7.43;;;4.90;;
6306;SDS011;3186;54.062;9.962;2023-03-01T11:21:24;8.60;;;5.33;;
6306;SDS011;3186;54.062;9.962;2023-03-01T11:23:51;7.80;;;5.43;;
6306;SDS011;3186;54.062;9.962;2023-03-01T11:26:17;8.10;;;5.33;;
6306;SDS011;3186;54.062;9.962;2023-03-01T11:28:44;9.83;;;5.97;;
6306;SDS011;3186;54.062;9.962;2023-03-01T11:31:16;7.73;;;5.13;;
6306;SDS011;3186;54.062;9.962;2023-03-01T11:39:19;6.27;;;4.87;;
6306;SDS011;3186;54.062;9.962;2023-03-01T11:42:15;6.57;;;4.40;;
6306;SDS011;3186;54.062;9.962;2023-03-01T11:44:46;7.13;;;5.30;;
6306;SDS011;3186;54.062;9.962;2023-03-01T11:50:00;6.67;;;4.57;;
6306;SDS011;3186;54.062;9.962;2023-03-01T12:03:44;6.40;;;4.60;;
6306;SDS011;3186;54.062;9.962;2023-03-01T12:12:03;6.27;;;4.57;;
6306;SDS011;3186;54.062;9.962;2023-03-01T12:26:06;5.70;;;4.23;;
6306;SDS011;3186;54.062;9.962;2023-03-01T12:31:38;7.03;;;4.90;;
6306;SDS011;3186;54.062;9.962;2023-03-01T12:46:44;8.03;;;4.80;;
6306;SDS011;3186;54.062;9.962;2023-03-01T12:48:50;6.80;;;5.30;;
6306;SDS011;3186;54.062;9.962;2023-03-01T12:51:38;6.17;;;5.03;;
6306;SDS011;3186;54.062;9.962;2023-03-01T12:54:07;6.30;;;4.47;;
6306;SDS011;3186;54.062;9.962;2023-03-01T12:56:40;6.97;;;4.67;;
6306;SDS011;3186;54.062;9.962;2023-03-01T13:04:41;5.80;;;4.93;;
6306;SDS011;3186;54.062;9.962;2023-03-01T13:20:19;4.60;;;4.13;;
6306;SDS011;3186;54.062;9.962;2023-03-01T13:26:00;5.20;;;4.33;;
6306;SDS011;3186;54.062;9.962;2023-03-01T13:28:37;4.77;;;3.93;;
6306;SDS011;3186;54.062;9.962;2023-03-01T13:31:10;5.23;;;3.73;;
6306;SDS011;3186;54.062;9.962;2023-03-01T13:33:56;4.63;;;4.17;;
6306;SDS011;3186;54.062;9.962;2023-03-01T13:44:32;5.03;;;4.47;;
6306;SDS011;3186;54.062;9.962;2023-03-01T13:46:51;4.47;;;4.07;;
6306;SDS011;3186;54.062;9.962;2023-03-01T13:49:23;6.03;;;5.17;;
6306;SDS011;3186;54.062;9.962;2023-03-01T13:55:50;6.43;;;5.67;;
6306;SDS011;3186;54.062;9.962;2023-03-01T13:58:00;6.17;;;5.17;;
6306;SDS011;3186;54.062;9.962;2023-03-01T14:03:02;5.93;;;4.80;;
6306;SDS011;3186;54.062;9.962;2023-03-01T14:05:36;5.30;;;4.80;;
6306;SDS011;3186;54.062;9.962;2023-03-01T14:08:03;5.33;;;4.57;;
6306;SDS011;3186;54.062;9.962;2023-03-01T14:10:52;6.17;;;5.50;;
6306;SDS011;3186;54.062;9.962;2023-03-01T14:21:20;5.20;;;4.43;;
6306;SDS011;3186;54.062;9.962;2023-03-01T14:23:47;7.00;;;5.90;;
6306;SDS011;3186;54.062;9.962;2023-03-01T14:26:14;5.23;;;4.73;;
6306;SDS011;3186;54.062;9.962;2023-03-01T14:28:47;7.70;;;5.93;;
6306;SDS011;3186;54.062;9.962;2023-03-01T14:31:34;5.63;;;5.03;;
6306;SDS011;3186;54.062;9.962;2023-03-01T14:34:02;6.03;;;5.43;;
6306;SDS011;3186;54.062;9.962;2023-03-01T14:36:31;5.77;;;4.87;;
6306;SDS011;3186;54.062;9.962;2023-03-01T14:38:58;8.73;;;5.30;;
6306;SDS011;3186;54.062;9.962;2023-03-01T14:41:30;6.83;;;6.03;;
6306;SDS011;3186;54.062;9.962;2023-03-01T14:44:05;7.57;;;5.57;;
6306;SDS011;3186;54.062;9.962;2023-03-01T14:46:41;6.37;;;5.43;;
6306;SDS011;3186;54.062;9.962;2023-03-01T14:49:22;7.43;;;6.33;;
6306;SDS011;3186;54.062;9.962;2023-03-01T14:52:01;8.50;;;7.03;;
6306;SDS011;3186;54.062;9.962;2023-03-01T14:54:31;6.67;;;5.97;;
6306;SDS011;3186;54.062;9.962;2023-03-01T14:57:15;7.43;;;6.57;;
6306;SDS011;3186;54.062;9.962;2023-03-01T14:59:43;8.60;;;6.47;;
6306;SDS011;3186;54.062;9.962;2023-03-01T15:02:13;6.83;;;6.13;;
6306;SDS011;3186;54.062;9.962;2023-03-01T15:04:43;7.50;;;5.63;;
6306;SDS011;3186;54.062;9.962;2023-03-01T15:07:12;6.10;;;5.47;;
6306;SDS011;3186;54.062;9.962;2023-03-01T15:09:39;9.90;;;6.33;;
6306;SDS011;3186;54.062;9.962;2023-03-01T15:18:19;7.73;;;6.23;;
6306;SDS011;3186;54.062;9.962;2023-03-01T15:20:47;8.03;;;5.87;;
6306;SDS011;3186;54.062;9.962;2023-03-01T15:23:17;7.93;;;5.93;;
6306;SDS011;3186;54.062;9.962;2023-03-01T15:25:54;7.70;;;6.10;;
6306;SDS011;3186;54.062;9.962;2023-03-01T15:28:22;6.87;;;5.30;;
6306;SDS011;3186;54.062;9.962;2023-03-01T15:30:55;6.83;;;5.83;;
6306;SDS011;3186;54.062;9.962;2023-03-01T15:33:29;6.00;;;5.20;;
6306;SDS011;3186;54.062;9.962;2023-03-01T15:36:02;6.80;;;5.40;;
6306;SDS011;3186;54.062;9.962;2023-03-01T15:38:52;6.93;;;5.27;;
6306;SDS011;3186;54.062;9.962;2023-03-01T15:44:23;7.10;;;5.53;;
6306;SDS011;3186;54.062;9.962;2023-03-01T15:46:51;10.30;;;5.97;;
6306;SDS011;3186;54.062;9.962;2023-03-01T15:52:03;8.93;;;6.53;;
6306;SDS011;3186;54.062;9.962;2023-03-01T15:54:34;8.03;;;6.20;;
6306;SDS011;3186;54.062;9.962;2023-03-01T15:57:00;8.93;;;7.13;;
6306;SDS011;3186;54.062;9.962;2023-03-01T15:59:26;9.73;;;6.80;;
6306;SDS011;3186;54.062;9.962;2023-03-01T16:01:52;11.23;;;7.37;;
6306;SDS011;3186;54.062;9.962;2023-03-01T16:04:18;10.00;;;7.70;;
6306;SDS011;3186;54.062;9.962;2023-03-01T16:06:48;11.43;;;8.27;;
6306;SDS011;3186;54.062;9.962;2023-03-01T16:09:22;11.77;;;8.23;;
6306;SDS011;3186;54.062;9.962;2023-03-01T16:11:50;12.83;;;9.27;;
6306;SDS011;3186;54.062;9.962;2023-03-01T16:14:18;13.47;;;8.97;;
6306;SDS011;3186;54.062;9.962;2023-03-01T16:16:44;11.50;;;8.80;;
6306;SDS011;3186;54.062;9.962;2023-03-01T16:19:11;12.87;;;9.40;;
6306;SDS011;3186;54.062;9.962;2023-03-01T16:21:37;15.20;;;10.37;;
6306;SDS011;3186;54.062;9.962;2023-03-01T16:24:03;17.67;;;11.43;;
6306;SDS011;3186;54.062;9.962;2023-03-01T16:26:30;15.60;;;11.23;;
6306;SDS011;3186;54.062;9.962;2023-03-01T16:28:56;15.83;;;11.30;;
6306;SDS011;3186;54.062;9.962;2023-03-01T16:31:22;20.07;;;12.10;;
6306;SDS011;3186;54.062;9.962;2023-03-01T16:33:49;17.00;;;12.33;;
6306;SDS011;3186;54.062;9.962;2023-03-01T16:36:17;18.33;;;12.50;;
6306;SDS011;3186;54.062;9.962;2023-03-01T16:38:44;19.33;;;13.40;;
6306;SDS011;3186;54.062;9.962;2023-03-01T16:41:15;21.33;;;13.90;;
6306;SDS011;3186;54.062;9.962;2023-03-01T16:43:43;20.17;;;13.57;;
6306;SDS011;3186;54.062;9.962;2023-03-01T16:46:32;21.33;;;13.37;;
6306;SDS011;3186;54.062;9.962;2023-03-01T16:48:57;22.57;;;14.77;;
6306;SDS011;3186;54.062;9.962;2023-03-01T16:51:23;20.57;;;13.67;;
6306;SDS011;3186;54.062;9.962;2023-03-01T16:53:50;20.47;;;13.13;;
6306;SDS011;3186;54.062;9.962;2023-03-01T16:56:17;24.00;;;14.37;;
6306;SDS011;3186;54.062;9.962;2023-03-01T16:58:43;19.93;;;13.33;;
6306;SDS011;3186;54.062;9.962;2023-03-01T17:01:10;21.37;;;13.90;;
6306;SDS011;3186;54.062;9.962;2023-03-01T17:03:44;22.37;;;14.17;;
6306;SDS011;3186;54.062;9.962;2023-03-01T17:06:12;26.60;;;15.23;;
6306;SDS011;3186;54.062;9.962;2023-03-01T17:08:40;23.60;;;14.40;;
6306;SDS011;3186;54.062;9.962;2023-03-01T17:11:07;27.30;;;16.60;;
6306;SDS011;3186;54.062;9.962;2023-03-01T17:13:36;30.10;;;17.43;;
6306;SDS011;3186;54.062;9.962;2023-03-01T17:16:03;35.33;;;19.80;;
6306;SDS011;3186;54.062;9.962;2023-03-01T17:18:30;33.70;;;19.30;;
6306;SDS011;3186;54.062;9.962;2023-03-01T17:20:56;30.77;;;18.43;;
6306;SDS011;3186;54.062;9.962;2023-03-01T17:23:22;28.63;;;18.57;;
6306;SDS011;3186;54.062;9.962;2023-03-01T17:25:48;30.40;;;17.83;;
6306;SDS011;3186;54.062;9.962;2023-03-01T17:28:14;27.33;;;17.00;;
6306;SDS011;3186;54.062;9.962;2023-03-01T17:30:41;24.90;;;15.97;;
6306;SDS011;3186;54.062;9.962;2023-03-01T17:33:09;25.37;;;15.03;;
6306;SDS011;3186;54.062;9.962;2023-03-01T17:35:36;26.43;;;15.33;;
6306;SDS011;3186;54.062;9.962;2023-03-01T17:38:03;29.90;;;16.67;;
6306;SDS011;3186;54.062;9.962;2023-03-01T17:40:30;25.80;;;15.27;;